Time;durP1;ratioP1;P1;durP2;ratioP2;P2;SDS_P1;SDS_P2;PMS_P1;PMS_P2;Temp;Humidity;BMP_temperature;BMP_pressure;BME280_temperature;BME280_humidity;BME280_pressure;Samples;Min_cycle;Max_cycle;Signal;HPM_P1;HPM_P2
2022/05/25 00:01:17;;;;;;;1.20;1.10;;;13.90;99.90;;;;;;5087966;28;20469;-72
2022/05/25 00:03:44;;;;;;;1.50;1.03;;;13.90;99.90;;;;;;5088340;28;20477;-72
2022/05/25 00:06:12;;;;;;;1.53;1.43;;;13.90;99.90;;;;;;5089110;28;20817;-72
2022/05/25 00:08:41;;;;;;;1.50;1.30;;;13.90;99.90;;;;;;5088371;28;20466;-72
2022/05/25 00:11:08;;;;;;;1.67;1.57;;;13.90;99.90;;;;;;5089112;28;20864;-72
2022/05/25 00:13:39;;;;;;;1.33;1.10;;;13.90;99.90;;;;;;5089411;28;20781;-72
2022/05/25 00:16:06;;;;;;;1.40;1.20;;;13.90;99.90;;;;;;5088330;28;20871;-72
2022/05/25 00:18:33;;;;;;;1.73;1.40;;;13.80;99.90;;;;;;5089183;28;20539;-72
2022/05/25 00:20:59;;;;;;;3.23;1.17;;;13.90;99.90;;;;;;5089098;28;21013;-72
2022/05/25 00:23:26;;;;;;;1.60;1.13;;;13.90;99.90;;;;;;5089022;28;20481;-73
2022/05/25 00:25:53;;;;;;;1.50;1.20;;;13.90;99.90;;;;;;5089620;28;20489;-72
2022/05/25 00:28:20;;;;;;;1.30;1.00;;;13.90;99.90;;;;;;5088297;28;20461;-72
2022/05/25 00:30:48;;;;;;;1.67;1.07;;;13.90;99.90;;;;;;5089139;28;21190;-72
2022/05/25 00:33:17;;;;;;;1.13;1.00;;;13.90;99.90;;;;;;5089266;28;20481;-72
2022/05/25 00:35:44;;;;;;;1.70;1.27;;;13.90;99.90;;;;;;5089504;28;20540;-72
2022/05/25 00:38:11;;;;;;;1.37;1.10;;;13.90;99.90;;;;;;5088149;28;20827;-72
2022/05/25 00:40:40;;;;;;;3.83;1.27;;;13.80;99.90;;;;;;5144057;22;20471;-71
2022/05/25 00:43:07;;;;;;;1.53;1.30;;;13.70;99.90;;;;;;5101925;28;20468;-73
2022/05/25 00:45:38;;;;;;;1.93;1.23;;;13.70;99.90;;;;;;5112553;28;20474;-72
2022/05/25 00:48:08;;;;;;;1.20;1.10;;;13.70;99.90;;;;;;5112120;28;20459;-71
2022/05/25 00:53:16;;;;;;;1.80;1.50;;;13.70;99.90;;;;;;5112194;28;20956;-72
2022/05/25 00:55:43;;;;;;;1.27;1.17;;;13.70;99.90;;;;;;5112253;28;20947;-72
2022/05/25 00:58:10;;;;;;;1.10;1.00;;;13.70;99.90;;;;;;5111722;28;20876;-72
2022/05/25 01:00:38;;;;;;;1.30;0.90;;;13.70;99.90;;;;;;5112507;28;20461;-72
2022/05/25 01:03:09;;;;;;;1.30;1.20;;;13.70;99.90;;;;;;5112820;28;20477;-72
2022/05/25 01:05:44;;;;;;;2.70;1.10;;;13.70;99.90;;;;;;5112351;28;20499;-71
2022/05/25 01:08:25;;;;;;;1.73;1.03;;;13.80;99.90;;;;;;5112133;28;20476;-72
2022/05/25 01:11:05;;;;;;;1.50;1.10;;;13.80;99.90;;;;;;5112261;28;20897;-72
2022/05/25 01:13:39;;;;;;;2.33;1.20;;;13.70;99.90;;;;;;5112136;28;20488;-71
2022/05/25 01:16:17;;;;;;;1.80;1.20;;;13.80;99.90;;;;;;5112388;28;20467;-71
2022/05/25 01:18:50;;;;;;;1.10;1.00;;;13.70;99.90;;;;;;5111841;28;20484;-72
2022/05/25 01:21:22;;;;;;;1.27;1.07;;;13.70;99.90;;;;;;5112195;28;20461;-72
2022/05/25 01:24:13;;;;;;;6.10;2.40;;;13.70;99.90;;;;;;5112044;28;20480;-72
2022/05/25 01:26:59;;;;;;;1.83;1.30;;;13.70;99.90;;;;;;5111531;28;20469;-71
2022/05/25 01:29:43;;;;;;;1.20;1.07;;;13.80;99.90;;;;;;5111627;28;20449;-72
2022/05/25 01:32:15;;;;;;;1.50;1.13;;;13.80;99.90;;;;;;5111961;28;20483;-71
2022/05/25 01:34:48;;;;;;;1.40;1.30;;;13.80;99.90;;;;;;5111850;28;20456;-71
2022/05/25 01:37:20;;;;;;;2.10;1.20;;;13.80;99.90;;;;;;5112184;28;20464;-73
2022/05/25 01:39:54;;;;;;;1.50;1.20;;;13.70;99.90;;;;;;5111290;28;20856;-73
2022/05/25 01:42:26;;;;;;;1.83;1.20;;;13.60;99.90;;;;;;5111687;28;21017;-73
2022/05/25 01:44:59;;;;;;;2.40;1.20;;;13.60;99.90;;;;;;5111656;28;20464;-72
2022/05/25 01:47:28;;;;;;;2.73;1.20;;;13.60;99.90;;;;;;5111827;28;20456;-72
2022/05/25 01:49:59;;;;;;;1.67;1.30;;;13.50;99.90;;;;;;5110962;28;20490;-73
2022/05/25 01:52:29;;;;;;;1.30;1.20;;;13.50;99.90;;;;;;5111582;28;20983;-73
2022/05/25 01:55:06;;;;;;;1.20;1.10;;;13.40;99.90;;;;;;5111864;28;20469;-73
2022/05/25 01:57:35;;;;;;;2.23;1.10;;;13.40;99.90;;;;;;5111722;28;20460;-72
2022/05/25 02:00:03;;;;;;;2.13;1.27;;;13.30;99.90;;;;;;5111114;28;20488;-72
2022/05/25 02:05:18;;;;;;;2.70;1.20;;;13.30;99.90;;;;;;5111566;28;20440;-73
2022/05/25 02:08:00;;;;;;;4.17;1.40;;;13.30;99.90;;;;;;5111328;28;20461;-72
2022/05/25 02:10:41;;;;;;;1.53;1.20;;;13.20;99.90;;;;;;5111556;28;21008;-73
2022/05/25 02:13:30;;;;;;;1.40;1.30;;;13.20;99.90;;;;;;5111376;28;20476;-72
2022/05/25 02:16:12;;;;;;;1.50;1.40;;;13.10;99.90;;;;;;5111581;28;20834;-72
2022/05/25 02:18:42;;;;;;;1.40;1.30;;;13.10;99.90;;;;;;5110456;28;20958;-72
2022/05/25 02:21:15;;;;;;;1.27;1.10;;;13.10;99.90;;;;;;5111361;28;20577;-73
2022/05/25 02:23:48;;;;;;;1.70;1.47;;;13.10;99.90;;;;;;5111028;28;20483;-72
2022/05/25 02:26:20;;;;;;;1.57;1.30;;;13.00;99.90;;;;;;5111343;28;20461;-72
2022/05/25 02:28:54;;;;;;;2.63;1.50;;;13.00;99.90;;;;;;5110593;28;20480;-72
2022/05/25 02:31:27;;;;;;;1.70;1.20;;;13.00;99.90;;;;;;5111277;28;20464;-73
2022/05/25 02:33:57;;;;;;;2.00;1.47;;;13.00;99.90;;;;;;5111147;28;20914;-72
2022/05/25 02:36:25;;;;;;;3.10;1.30;;;13.00;99.90;;;;;;5111085;28;20947;-72
2022/05/25 02:38:52;;;;;;;1.97;1.30;;;13.00;99.90;;;;;;5112016;28;20491;-72
2022/05/25 02:41:30;;;;;;;2.73;1.20;;;12.90;99.90;;;;;;5115339;28;20546;-72
2022/05/25 02:43:57;;;;;;;1.80;1.30;;;12.90;99.90;;;;;;5115203;28;20459;-72
2022/05/25 02:46:25;;;;;;;1.20;1.10;;;12.90;99.90;;;;;;5115390;28;20532;-72
2022/05/25 02:48:52;;;;;;;2.13;1.40;;;12.90;99.90;;;;;;5114504;28;20535;-72
2022/05/25 02:51:19;;;;;;;1.47;1.37;;;12.80;99.90;;;;;;5115112;28;20457;-72
2022/05/25 02:53:46;;;;;;;1.87;1.20;;;12.80;99.90;;;;;;5115070;28;20477;-72
2022/05/25 02:56:13;;;;;;;1.57;1.20;;;12.80;99.90;;;;;;5114977;28;20484;-71
2022/05/25 02:58:39;;;;;;;1.57;1.43;;;12.80;99.90;;;;;;5114211;28;20495;-72
2022/05/25 03:01:07;;;;;;;1.40;1.20;;;12.80;99.90;;;;;;5115127;28;20479;-72
2022/05/25 03:03:36;;;;;;;1.10;1.00;;;12.80;99.90;;;;;;5114746;28;20673;-71
2022/05/25 03:06:04;;;;;;;2.10;1.20;;;12.80;99.90;;;;;;5115116;28;20883;-72
2022/05/25 03:08:30;;;;;;;1.20;1.10;;;12.80;99.90;;;;;;5114306;28;20460;-71
2022/05/25 03:10:57;;;;;;;1.87;1.60;;;12.80;99.90;;;;;;5114649;28;20918;-72
2022/05/25 03:13:24;;;;;;;1.63;1.20;;;12.80;99.90;;;;;;5114638;28;20484;-72
2022/05/25 03:15:51;;;;;;;1.30;1.20;;;12.80;99.90;;;;;;5114659;28;20467;-73
2022/05/25 03:18:18;;;;;;;1.50;1.13;;;12.80;99.90;;;;;;5114452;28;20457;-72
2022/05/25 03:20:47;;;;;;;2.40;1.00;;;12.80;99.90;;;;;;5114373;28;20866;-72
2022/05/25 03:23:17;;;;;;;1.73;1.47;;;12.80;99.90;;;;;;5114599;28;20476;-72
2022/05/25 03:25:44;;;;;;;1.50;1.30;;;12.80;99.90;;;;;;5114198;28;20459;-72
2022/05/25 03:28:10;;;;;;;4.03;1.40;;;12.80;99.90;;;;;;5113976;28;20460;-71
2022/05/25 03:30:37;;;;;;;2.27;1.10;;;12.80;99.90;;;;;;5109203;28;20461;-71
2022/05/25 03:33:04;;;;;;;1.10;1.00;;;12.80;99.90;;;;;;5093403;28;20564;-72
2022/05/25 03:35:32;;;;;;;1.27;1.17;;;12.70;99.90;;;;;;5092865;28;20450;-70
2022/05/25 03:38:01;;;;;;;1.40;1.23;;;12.70;99.90;;;;;;5093352;28;20810;-70
2022/05/25 03:40:28;;;;;;;1.37;1.27;;;12.70;99.90;;;;;;5093856;28;20510;-71
2022/05/25 03:42:55;;;;;;;1.20;1.10;;;12.70;99.90;;;;;;5110551;28;20998;-71
2022/05/25 03:45:22;;;;;;;1.53;1.10;;;12.70;99.90;;;;;;5113054;28;20484;-72
2022/05/25 03:47:49;;;;;;;1.30;1.20;;;12.70;99.90;;;;;;5112339;28;20453;-72
2022/05/25 03:50:18;;;;;;;6.20;1.47;;;12.60;99.90;;;;;;5111805;28;20939;-72
2022/05/25 03:52:44;;;;;;;1.85;1.30;;;12.60;99.90;;;;;;5112257;27;20494;-71
2022/05/25 03:55:13;;;;;;;1.30;1.20;;;12.60;99.90;;;;;;5112699;28;20187;-71
2022/05/25 03:57:39;;;;;;;1.33;1.23;;;12.60;99.90;;;;;;5113055;28;20472;-71
2022/05/25 04:00:07;;;;;;;2.37;1.20;;;12.60;99.90;;;;;;5112666;28;20480;-72
2022/05/25 04:02:34;;;;;;;1.20;1.03;;;12.50;99.90;;;;;;5112918;28;20484;-72
2022/05/25 04:05:10;;;;;;;1.20;1.10;;;12.50;99.90;;;;;;5112473;28;20998;-72
2022/05/25 04:07:38;;;;;;;1.57;1.30;;;12.50;99.90;;;;;;5112544;28;20513;-71
2022/05/25 04:10:07;;;;;;;1.50;1.20;;;12.50;99.90;;;;;;5112836;28;20452;-71
2022/05/25 04:12:35;;;;;;;2.60;1.10;;;12.50;99.90;;;;;;5109673;28;20491;-71
2022/05/25 04:15:02;;;;;;;1.90;1.27;;;12.50;99.90;;;;;;5111846;28;20468;-73
2022/05/25 04:17:29;;;;;;;1.90;1.23;;;12.50;99.90;;;;;;5111510;28;20492;-72
2022/05/25 04:19:56;;;;;;;1.53;1.20;;;12.50;99.90;;;;;;5111618;28;20496;-72
2022/05/25 04:22:23;;;;;;;3.20;1.80;;;12.50;99.90;;;;;;5111248;28;20489;-72
2022/05/25 04:24:50;;;;;;;1.53;1.30;;;12.40;99.90;;;;;;5092676;28;20461;-72
2022/05/25 04:27:16;;;;;;;2.57;1.23;;;12.40;99.90;;;;;;5092954;28;20465;-72
2022/05/25 04:29:45;;;;;;;1.60;1.40;;;12.40;99.90;;;;;;5103299;28;20456;-71
2022/05/25 04:32:11;;;;;;;1.47;1.30;;;12.50;99.90;;;;;;5113101;28;21003;-71
2022/05/25 04:34:38;;;;;;;1.30;1.20;;;12.50;99.90;;;;;;5112814;28;20464;-72
2022/05/25 04:39:58;;;;;;;1.30;1.10;;;12.50;99.90;;;;;;5063909;28;20886;-77
2022/05/25 04:42:28;;;;;;;2.40;1.20;;;12.50;99.90;;;;;;5112551;28;21030;-75
2022/05/25 04:45:00;;;;;;;1.70;1.13;;;12.60;99.90;;;;;;5112793;28;20492;-76
2022/05/25 04:47:27;;;;;;;1.83;1.20;;;12.60;99.90;;;;;;5110770;28;20457;-76
2022/05/25 04:49:54;;;;;;;2.67;1.30;;;12.60;99.90;;;;;;5112456;28;20834;-77
2022/05/25 04:52:21;;;;;;;2.13;1.10;;;12.70;99.90;;;;;;5114293;28;20484;-77
2022/05/25 04:54:48;;;;;;;2.17;1.37;;;12.70;99.90;;;;;;5113680;28;20877;-78
2022/05/25 04:57:19;;;;;;;1.13;1.03;;;12.70;99.90;;;;;;5114108;28;20456;-77
2022/05/25 04:59:46;;;;;;;2.07;1.20;;;12.80;99.90;;;;;;5115824;28;21033;-77
2022/05/25 05:02:15;;;;;;;1.73;1.40;;;12.80;99.90;;;;;;5119347;28;20487;-78
2022/05/25 05:04:42;;;;;;;2.73;1.60;;;12.80;99.90;;;;;;5115604;28;20457;-73
2022/05/25 05:07:09;;;;;;;1.90;1.30;;;12.80;99.90;;;;;;5112565;28;20457;-73
2022/05/25 05:09:37;;;;;;;2.57;1.60;;;12.80;99.90;;;;;;5112420;28;20456;-73
2022/05/25 05:12:05;;;;;;;1.37;1.27;;;12.80;99.90;;;;;;5112466;28;20476;-73
2022/05/25 05:14:32;;;;;;;1.50;1.40;;;12.90;99.90;;;;;;5112612;28;20825;-73
2022/05/25 05:17:01;;;;;;;1.83;1.30;;;12.90;99.90;;;;;;5112657;28;20463;-73
2022/05/25 05:19:30;;;;;;;1.73;1.20;;;13.00;99.90;;;;;;5111646;28;20457;-73
2022/05/25 05:21:57;;;;;;;1.60;1.20;;;12.90;99.90;;;;;;5112252;28;20975;-73
2022/05/25 05:24:24;;;;;;;2.07;1.30;;;12.90;99.90;;;;;;5112556;28;20495;-73
2022/05/25 05:26:51;;;;;;;1.63;1.53;;;13.00;99.90;;;;;;5112697;28;20461;-73
2022/05/25 05:29:18;;;;;;;1.53;1.30;;;13.00;99.90;;;;;;5111538;28;20468;-73
2022/05/25 05:31:45;;;;;;;1.63;1.23;;;13.00;99.90;;;;;;5112308;28;20464;-73
2022/05/25 05:34:12;;;;;;;2.47;1.70;;;13.00;99.90;;;;;;5112394;28;20457;-77
2022/05/25 05:36:45;;;;;;;1.23;1.07;;;13.10;99.90;;;;;;5112444;28;20459;-77
2022/05/25 05:39:15;;;;;;;1.97;1.10;;;13.20;99.90;;;;;;5111478;28;20990;-76
2022/05/25 05:41:47;;;;;;;1.73;1.00;;;13.30;99.90;;;;;;5111981;28;20820;-76
2022/05/25 05:44:18;;;;;;;2.03;1.23;;;13.30;99.90;;;;;;5113714;28;20461;-78
2022/05/25 05:46:48;;;;;;;2.00;1.33;;;13.30;99.90;;;;;;5113822;28;20974;-78
2022/05/25 05:49:15;;;;;;;1.80;1.70;;;13.40;99.90;;;;;;5108231;28;20461;-77
2022/05/25 05:51:44;;;;;;;5.67;1.57;;;13.40;99.90;;;;;;5109943;28;20449;-76
2022/05/25 05:54:12;;;;;;;1.60;1.50;;;13.50;99.90;;;;;;5110442;28;20558;-75
2022/05/25 05:56:39;;;;;;;1.50;1.40;;;13.60;99.90;;;;;;5110461;28;20460;-72
2022/05/25 05:59:06;;;;;;;1.73;1.60;;;13.70;99.90;;;;;;5109776;28;20544;-75
2022/05/25 06:01:34;;;;;;;1.40;1.30;;;13.70;99.90;;;;;;5110275;28;21035;-74
2022/05/25 06:04:01;;;;;;;3.20;1.60;;;13.80;99.90;;;;;;5109352;28;20461;-75
2022/05/25 06:06:29;;;;;;;1.33;1.10;;;13.80;99.90;;;;;;5109819;28;20461;-76
2022/05/25 06:08:57;;;;;;;3.00;1.30;;;13.90;99.90;;;;;;5109356;28;20457;-73
2022/05/25 06:11:25;;;;;;;1.43;1.33;;;14.00;99.90;;;;;;5109513;28;20457;-74
2022/05/25 06:13:53;;;;;;;1.90;1.40;;;14.10;99.90;;;;;;5109822;28;20456;-74
2022/05/25 06:21:49;;;;;;;1.97;1.43;;;14.60;99.90;;;;;;5106825;28;20488;-77
2022/05/25 06:24:17;;;;;;;2.83;1.30;;;14.60;99.90;;;;;;5112439;28;20496;-75
2022/05/25 06:26:44;;;;;;;2.40;1.40;;;14.70;99.90;;;;;;5111143;28;20452;-72
2022/05/25 06:29:16;;;;;;;3.03;1.40;;;14.70;99.90;;;;;;5108984;28;20456;-74
2022/05/25 06:31:43;;;;;;;2.93;1.60;;;14.70;99.90;;;;;;5111057;28;20452;-76
2022/05/25 06:34:10;;;;;;;3.20;1.67;;;14.70;99.90;;;;;;5110778;28;20529;-73
2022/05/25 06:36:37;;;;;;;1.30;1.20;;;14.70;99.90;;;;;;5110191;28;20467;-73
2022/05/25 06:39:04;;;;;;;1.90;1.20;;;14.70;99.90;;;;;;5110154;28;20982;-73
2022/05/25 06:41:32;;;;;;;1.57;1.17;;;14.80;99.90;;;;;;5109771;28;20547;-73
2022/05/25 06:44:00;;;;;;;2.20;1.40;;;14.80;99.90;;;;;;5109533;28;20452;-77
2022/05/25 06:46:27;;;;;;;2.93;1.33;;;14.90;99.90;;;;;;5110548;28;20536;-77
2022/05/25 06:48:57;;;;;;;2.80;1.33;;;14.90;99.90;;;;;;5109314;28;20464;-75
2022/05/25 06:51:26;;;;;;;3.90;1.77;;;15.00;99.90;;;;;;5109544;28;20453;-75
2022/05/25 06:53:53;;;;;;;5.13;1.30;;;15.00;99.90;;;;;;5112354;28;20461;-73
2022/05/25 06:56:22;;;;;;;2.33;1.27;;;15.00;99.90;;;;;;5110215;28;20459;-76
2022/05/25 06:58:50;;;;;;;3.77;1.30;;;15.00;99.90;;;;;;5110961;28;20551;-77
2022/05/25 07:01:17;;;;;;;2.17;1.17;;;15.00;99.90;;;;;;5111426;28;20854;-75
2022/05/25 07:03:44;;;;;;;2.23;1.37;;;15.00;99.90;;;;;;5114012;28;20479;-79
2022/05/25 07:06:13;;;;;;;6.13;1.70;;;15.20;99.90;;;;;;5111116;28;20824;-73
2022/05/25 07:08:40;;;;;;;1.83;1.40;;;15.20;99.90;;;;;;5112225;28;20461;-76
2022/05/25 07:11:07;;;;;;;1.73;1.20;;;15.30;99.90;;;;;;5112614;28;20463;-77
2022/05/25 07:13:34;;;;;;;2.20;1.40;;;15.40;99.90;;;;;;5111773;28;20485;-76
2022/05/25 07:16:06;;;;;;;2.47;1.50;;;15.50;99.90;;;;;;5111200;28;20467;-76
2022/05/25 07:18:33;;;;;;;2.00;1.43;;;15.60;99.90;;;;;;5111571;28;20951;-78
2022/05/25 07:21:01;;;;;;;2.03;1.47;;;15.70;99.90;;;;;;5109734;28;20842;-78
2022/05/25 07:23:28;;;;;;;1.93;1.43;;;15.70;99.90;;;;;;5111819;28;20512;-79
2022/05/25 07:25:55;;;;;;;2.70;1.07;;;15.80;99.90;;;;;;5113754;28;20457;-79
2022/05/25 07:30:52;;;;;;;1.77;1.07;;;15.90;99.90;;;;;;5092193;28;20573;-74
2022/05/25 07:33:20;;;;;;;2.07;1.63;;;16.00;99.90;;;;;;5093998;28;20481;-72
2022/05/25 07:35:47;;;;;;;1.50;1.40;;;16.20;99.90;;;;;;5094078;28;20832;-71
2022/05/25 07:38:14;;;;;;;1.73;1.30;;;16.30;99.90;;;;;;5093754;28;20507;-73
2022/05/25 07:40:43;;;;;;;3.13;1.10;;;16.50;99.90;;;;;;5093839;28;20477;-74
2022/05/25 07:43:13;;;;;;;1.70;1.30;;;16.60;99.90;;;;;;5094239;28;20488;-71
2022/05/25 07:45:40;;;;;;;1.53;1.37;;;16.60;99.90;;;;;;5094041;28;20484;-71
2022/05/25 07:48:07;;;;;;;1.60;1.50;;;16.70;99.90;;;;;;5093375;28;20979;-72
2022/05/25 07:50:36;;;;;;;1.30;1.00;;;16.70;99.90;;;;;;5093664;28;20465;-73
2022/05/25 07:53:03;;;;;;;1.70;1.50;;;16.80;99.80;;;;;;5093684;28;20481;-73
2022/05/25 07:55:30;;;;;;;2.63;1.57;;;16.80;99.90;;;;;;5093611;28;20965;-72
2022/05/25 07:57:56;;;;;;;1.37;1.27;;;16.80;99.90;;;;;;5093380;28;20980;-70
2022/05/25 08:00:25;;;;;;;1.80;1.23;;;16.90;99.90;;;;;;5093241;28;20474;-71
2022/05/25 08:05:52;;;;;;;1.63;1.10;;;17.20;99.90;;;;;;5093464;28;20816;-72
2022/05/25 08:08:22;;;;;;;1.67;1.03;;;17.30;99.90;;;;;;5092732;28;20462;-71
2022/05/25 08:10:54;;;;;;;1.57;1.27;;;17.20;99.90;;;;;;5093557;28;20462;-71
2022/05/25 08:13:21;;;;;;;2.03;1.30;;;17.30;99.90;;;;;;5093240;28;20478;-71
2022/05/25 08:15:49;;;;;;;1.73;1.40;;;17.20;99.90;;;;;;5093498;28;20457;-71
2022/05/25 08:18:18;;;;;;;1.60;1.20;;;17.20;99.90;;;;;;5092933;28;20462;-71
2022/05/25 08:20:47;;;;;;;2.70;1.80;;;17.10;99.20;;;;;;5092958;28;20490;-71
2022/05/25 08:23:16;;;;;;;2.93;1.60;;;17.00;99.90;;;;;;5093065;28;20480;-71
2022/05/25 08:25:44;;;;;;;6.43;1.30;;;16.90;98.30;;;;;;5092965;28;20465;-71
2022/05/25 08:28:11;;;;;;;1.43;1.07;;;16.90;98.80;;;;;;5092462;28;20480;-73
2022/05/25 08:30:41;;;;;;;2.47;1.33;;;17.00;99.50;;;;;;5111720;28;20840;-71
2022/05/25 08:33:08;;;;;;;2.20;1.30;;;17.20;99.90;;;;;;5113321;28;20489;-71
2022/05/25 08:35:35;;;;;;;1.50;1.20;;;17.40;99.40;;;;;;5112699;28;20944;-71
2022/05/25 08:38:05;;;;;;;1.30;1.13;;;17.50;98.50;;;;;;5112718;28;20559;-72
2022/05/25 08:40:33;;;;;;;2.27;1.30;;;17.50;99.90;;;;;;5113053;28;20457;-74
2022/05/25 08:43:03;;;;;;;2.30;1.10;;;17.60;99.90;;;;;;5113534;28;20480;-72
2022/05/25 08:45:36;;;;;;;6.43;1.53;;;17.70;99.90;;;;;;5113057;28;20455;-71
2022/05/25 08:48:04;;;;;;;4.27;1.50;;;17.80;99.70;;;;;;5112782;28;20466;-71
2022/05/25 08:50:32;;;;;;;2.90;1.73;;;18.00;99.90;;;;;;5113013;28;20461;-72
2022/05/25 08:53:00;;;;;;;2.20;1.40;;;18.00;99.00;;;;;;5113067;28;20477;-72
2022/05/25 08:55:48;;;;;;;3.10;2.20;;;18.00;99.90;;;;;;5112966;28;20456;-71
2022/05/25 08:58:15;;;;;;;2.33;1.57;;;18.10;99.90;;;;;;5112363;28;20492;-72
2022/05/25 09:00:46;;;;;;;4.23;1.40;;;18.10;99.80;;;;;;5112693;28;20460;-76
2022/05/25 09:03:21;;;;;;;2.60;1.53;;;18.10;99.80;;;;;;5112759;28;20481;-72
2022/05/25 09:05:54;;;;;;;2.80;1.43;;;18.00;99.50;;;;;;5112669;28;20906;-72
2022/05/25 09:08:27;;;;;;;2.50;1.73;;;17.90;99.20;;;;;;5111890;28;20457;-74
2022/05/25 09:10:59;;;;;;;3.73;1.40;;;17.90;98.60;;;;;;5112798;28;20453;-74
2022/05/25 09:13:35;;;;;;;1.40;1.20;;;17.80;96.80;;;;;;5112252;28;20473;-71
2022/05/25 09:16:17;;;;;;;2.30;1.10;;;17.80;97.00;;;;;;5112630;28;20483;-71
2022/05/25 09:18:51;;;;;;;1.73;1.60;;;17.70;97.20;;;;;;5111499;28;20464;-71
2022/05/25 09:21:22;;;;;;;1.20;1.10;;;17.70;99.00;;;;;;5112274;28;20483;-71
2022/05/25 09:23:52;;;;;;;1.07;0.93;;;17.60;97.00;;;;;;5111982;28;20473;-71
2022/05/25 09:26:20;;;;;;;2.17;1.47;;;17.50;98.20;;;;;;5111980;28;20465;-71
2022/05/25 09:28:51;;;;;;;2.23;1.30;;;17.40;99.60;;;;;;5111291;28;20468;-71
2022/05/25 09:31:26;;;;;;;2.40;1.30;;;17.30;99.20;;;;;;5111891;28;20456;-71
2022/05/25 09:33:57;;;;;;;2.67;1.10;;;17.20;99.30;;;;;;5111874;28;20476;-71
2022/05/25 09:36:32;;;;;;;1.60;1.40;;;17.20;99.80;;;;;;5112020;28;20966;-71
2022/05/25 09:39:04;;;;;;;3.17;1.30;;;17.30;99.90;;;;;;5111596;28;20467;-71
2022/05/25 09:41:33;;;;;;;1.93;1.37;;;17.40;99.90;;;;;;5111643;28;20480;-72
2022/05/25 09:44:03;;;;;;;3.30;1.37;;;17.50;99.90;;;;;;5112047;28;20453;-71
2022/05/25 09:46:35;;;;;;;1.60;1.17;;;17.60;99.10;;;;;;5111563;28;20467;-71
2022/05/25 09:49:05;;;;;;;2.90;1.23;;;17.60;98.60;;;;;;5111085;28;20461;-71
2022/05/25 09:51:35;;;;;;;3.30;1.43;;;17.60;99.50;;;;;;5111337;28;20453;-71
2022/05/25 09:54:05;;;;;;;1.43;1.13;;;17.60;99.30;;;;;;5111702;28;20463;-71
2022/05/25 09:56:37;;;;;;;2.10;1.10;;;17.60;99.20;;;;;;5111540;28;20877;-72
2022/05/25 09:59:07;;;;;;;1.30;1.20;;;17.60;99.90;;;;;;5111117;28;20463;-71
2022/05/25 10:01:41;;;;;;;1.27;1.10;;;17.60;99.90;;;;;;5111242;28;20516;-71
2022/05/25 10:04:09;;;;;;;4.03;1.33;;;17.50;99.80;;;;;;5111545;28;20969;-71
2022/05/25 10:06:49;;;;;;;3.30;1.23;;;17.60;99.90;;;;;;5111407;28;20472;-72
2022/05/25 10:09:19;;;;;;;1.47;1.20;;;18.20;99.80;;;;;;5111085;28;20943;-71
2022/05/25 10:11:49;;;;;;;1.80;1.40;;;18.50;97.90;;;;;;5111664;28;20456;-71
2022/05/25 10:14:25;;;;;;;1.23;1.07;;;18.70;97.90;;;;;;5112196;28;20517;-71
2022/05/25 10:16:53;;;;;;;1.50;1.23;;;18.70;96.60;;;;;;5111579;28;20949;-71
2022/05/25 10:19:22;;;;;;;2.60;1.20;;;18.60;98.90;;;;;;5110808;28;20461;-71
2022/05/25 10:21:51;;;;;;;1.90;1.23;;;18.60;98.10;;;;;;5111293;28;20499;-71
2022/05/25 10:24:24;;;;;;;1.87;1.20;;;18.70;98.80;;;;;;5111399;28;20460;-71
2022/05/25 10:26:57;;;;;;;1.90;1.27;;;18.70;97.30;;;;;;5111664;28;20461;-70
2022/05/25 10:38:08;;;;;;;2.93;1.50;;;20.60;93.90;;;;;;5110638;28;20498;-70
2022/05/25 10:40:35;;;;;;;1.83;1.27;;;20.40;92.60;;;;;;5110951;28;20460;-70
2022/05/25 10:43:03;;;;;;;1.67;1.10;;;20.40;92.10;;;;;;5111022;28;20484;-71
2022/05/25 10:45:38;;;;;;;1.87;1.20;;;20.40;97.50;;;;;;5110771;28;20859;-71
2022/05/25 10:48:13;;;;;;;1.43;0.97;;;20.80;96.60;;;;;;5110544;28;20468;-70
2022/05/25 10:50:47;;;;;;;2.50;1.20;;;20.80;94.10;;;;;;5111058;28;20456;-71
2022/05/25 10:53:27;;;;;;;2.20;1.20;;;20.50;94.90;;;;;;5111076;28;20469;-70
2022/05/25 10:56:00;;;;;;;3.60;1.60;;;20.30;95.90;;;;;;5111505;28;20817;-71
2022/05/25 10:58:53;;;;;;;1.47;1.10;;;20.20;95.70;;;;;;5110476;28;20468;-70
2022/05/25 11:01:35;;;;;;;2.17;1.23;;;20.10;96.30;;;;;;5115006;28;20484;-70
2022/05/25 11:04:31;;;;;;;1.80;1.10;;;19.90;96.50;;;;;;5115322;28;20543;-71
2022/05/25 11:07:14;;;;;;;2.07;1.27;;;19.80;94.60;;;;;;5115075;28;20464;-70
2022/05/25 11:10:22;;;;;;;2.87;1.20;;;19.90;95.30;;;;;;5114290;28;20464;-72
2022/05/25 11:13:01;;;;;;;1.30;1.00;;;20.30;95.70;;;;;;5094094;28;20836;-74
2022/05/25 11:15:39;;;;;;;1.90;1.30;;;20.40;93.70;;;;;;5114543;28;21043;-74
2022/05/25 11:18:22;;;;;;;1.47;0.97;;;20.30;94.40;;;;;;5114326;28;20468;-73
2022/05/25 11:20:59;;;;;;;1.40;1.10;;;20.10;95.50;;;;;;5114602;28;20456;-73
2022/05/25 11:23:53;;;;;;;2.13;1.27;;;19.90;95.10;;;;;;5114305;28;21031;-73
2022/05/25 11:26:39;;;;;;;1.50;1.10;;;19.80;94.50;;;;;;5114650;28;20452;-73
2022/05/25 11:29:18;;;;;;;1.60;1.23;;;19.60;92.80;;;;;;5114891;28;20460;-70
2022/05/25 11:31:58;;;;;;;1.73;1.40;;;19.60;95.30;;;;;;5115874;28;20494;-70
2022/05/25 11:34:37;;;;;;;1.30;1.10;;;19.50;92.60;;;;;;5114564;28;20505;-71
2022/05/25 11:37:28;;;;;;;2.70;1.40;;;19.30;93.10;;;;;;5114678;28;20487;-72
2022/05/25 11:40:02;;;;;;;1.37;1.27;;;19.20;94.00;;;;;;5114010;28;20456;-73
2022/05/25 11:42:45;;;;;;;1.30;1.10;;;19.20;93.80;;;;;;5114062;28;20854;-72
2022/05/25 11:45:30;;;;;;;1.60;1.50;;;19.70;98.20;;;;;;5114297;28;20459;-72
2022/05/25 11:48:15;;;;;;;1.37;1.10;;;20.30;93.50;;;;;;5114099;28;20468;-71
2022/05/25 11:50:47;;;;;;;2.03;1.13;;;20.90;95.70;;;;;;5114037;28;21046;-72
2022/05/25 11:53:43;;;;;;;1.57;1.00;;;21.30;92.20;;;;;;5114029;28;20473;-72
2022/05/25 11:56:28;;;;;;;1.10;1.00;;;21.40;90.30;;;;;;5096230;28;20457;-72
2022/05/25 11:59:10;;;;;;;1.30;0.90;;;21.30;94.90;;;;;;5113617;28;20452;-72
2022/05/25 12:01:44;;;;;;;1.20;1.10;;;21.60;94.30;;;;;;5113611;28;20985;-72
2022/05/25 12:04:37;;;;;;;1.83;1.30;;;22.10;92.40;;;;;;5113855;28;20456;-72
2022/05/25 12:07:20;;;;;;;1.77;1.33;;;22.40;94.20;;;;;;5113947;28;20460;-71
2022/05/25 12:10:15;;;;;;;1.57;1.23;;;22.40;91.70;;;;;;5113183;28;20868;-72
2022/05/25 12:12:47;;;;;;;1.90;1.50;;;22.10;92.00;;;;;;5113441;28;20992;-72
2022/05/25 12:15:22;;;;;;;1.40;1.20;;;21.70;91.90;;;;;;5114173;28;20776;-71
2022/05/25 12:18:01;;;;;;;2.27;1.40;;;21.40;93.00;;;;;;5113665;28;20877;-72
2022/05/25 12:20:35;;;;;;;1.97;1.20;;;21.20;93.70;;;;;;5113743;28;20460;-72
2022/05/25 12:23:06;;;;;;;2.87;1.03;;;21.10;94.30;;;;;;5113548;28;20488;-72
2022/05/25 12:25:36;;;;;;;1.87;1.20;;;21.00;93.50;;;;;;5113240;28;20559;-72
2022/05/25 12:28:05;;;;;;;1.50;1.10;;;21.00;95.30;;;;;;5112863;28;20831;-71
2022/05/25 12:30:36;;;;;;;1.50;1.20;;;21.10;94.00;;;;;;5113054;28;20465;-71
2022/05/25 12:33:06;;;;;;;2.10;1.13;;;21.10;93.50;;;;;;5113275;28;20477;-71
2022/05/25 12:35:37;;;;;;;3.60;1.20;;;21.10;92.10;;;;;;5112670;28;20464;-71
2022/05/25 12:38:07;;;;;;;1.10;1.00;;;21.10;94.50;;;;;;5112812;28;20464;-70
2022/05/25 12:40:44;;;;;;;4.20;1.27;;;21.30;93.70;;;;;;5113286;28;20838;-75
2022/05/25 12:43:50;;;;;;;2.67;1.60;;;21.70;94.50;;;;;;5112654;28;20492;-71
2022/05/25 12:49:31;;;;;;;1.77;1.17;;;22.70;95.20;;;;;;5101859;28;20474;-71
2022/05/25 12:51:59;;;;;;;1.20;1.10;;;23.10;93.40;;;;;;5092671;28;20472;-71
2022/05/25 12:54:30;;;;;;;2.07;1.60;;;23.20;91.90;;;;;;5092232;28;20489;-73
2022/05/25 12:57:00;;;;;;;2.23;1.20;;;23.20;91.20;;;;;;5092404;28;20457;-71
2022/05/25 12:59:32;;;;;;;1.33;1.13;;;22.70;85.70;;;;;;5091666;28;20538;-70
2022/05/25 13:02:24;;;;;;;2.53;1.43;;;22.10;88.20;;;;;;5092487;28;20489;-72
2022/05/25 13:04:52;;;;;;;1.47;1.07;;;21.80;90.80;;;;;;5092162;28;20466;-72
2022/05/25 13:07:40;;;;;;;1.63;1.00;;;21.80;91.40;;;;;;5091761;28;20472;-72
2022/05/25 13:10:13;;;;;;;1.83;1.03;;;22.00;94.50;;;;;;5091481;28;20460;-71
2022/05/25 13:12:48;;;;;;;2.30;1.30;;;22.40;92.30;;;;;;5091807;28;20843;-73
2022/05/25 13:15:38;;;;;;;1.30;1.10;;;22.60;92.10;;;;;;5091712;28;20829;-71
2022/05/25 13:18:07;;;;;;;2.90;1.50;;;22.60;93.70;;;;;;5091471;28;20798;-74
2022/05/25 13:21:00;;;;;;;1.90;1.20;;;22.50;91.00;;;;;;5091701;28;20508;-72
2022/05/25 13:24:07;;;;;;;3.40;2.00;;;22.20;90.80;;;;;;5091897;28;20489;-75
2022/05/25 13:27:12;;;;;;;1.67;1.33;;;21.80;91.10;;;;;;5092082;28;20457;-73
2022/05/25 13:29:52;;;;;;;3.27;1.87;;;21.50;91.90;;;;;;5110371;22;20513;-78
2022/05/25 13:32:36;;;;;;;2.03;1.40;;;21.40;91.10;;;;;;5071781;28;20492;-78
2022/05/25 13:35:28;;;;;;;1.27;1.03;;;21.30;88.50;;;;;;5071032;28;20869;-77
2022/05/25 13:37:58;;;;;;;1.60;1.00;;;21.70;88.30;;;;;;5054235;28;20463;-74
2022/05/25 13:40:29;;;;;;;2.23;1.00;;;22.20;93.80;;;;;;5050896;28;20807;-73
2022/05/25 13:42:56;;;;;;;1.20;1.10;;;22.40;82.30;;;;;;5050270;28;21017;-78